sensor_id;sensor_type;location;lat;lon;timestamp;temperature;humidity
15969;DHT22;8085;53.472;9.794;2022-07-25T03:49:16;23.20;99.90
15969;DHT22;8085;53.472;9.794;2022-07-25T05:12:38;23.70;99.90
15969;DHT22;8085;53.472;9.794;2022-07-25T05:15:05;23.60;99.90
15969;DHT22;8085;53.472;9.794;2022-07-25T05:17:33;23.60;99.90
15969;DHT22;8085;53.472;9.794;2022-07-25T05:20:00;23.60;99.90
15969;DHT22;8085;53.472;9.794;2022-07-25T05:26:24;23.70;99.90
15969;DHT22;8085;53.472;9.794;2022-07-25T05:28:52;23.80;99.90
15969;DHT22;8085;53.472;9.794;2022-07-25T05:31:19;23.80;99.90
15969;DHT22;8085;53.472;9.794;2022-07-25T05:33:46;23.90;99.90
15969;DHT22;8085;53.472;9.794;2022-07-25T05:36:13;24.00;99.90
15969;DHT22;8085;53.472;9.794;2022-07-25T05:38:41;24.00;99.90
15969;DHT22;8085;53.472;9.794;2022-07-25T05:41:08;24.10;99.90
15969;DHT22;8085;53.472;9.794;2022-07-25T05:43:35;24.10;99.90
15969;DHT22;8085;53.472;9.794;2022-07-25T05:46:04;24.20;99.90
15969;DHT22;8085;53.472;9.794;2022-07-25T05:48:31;24.30;99.90
15969;DHT22;8085;53.472;9.794;2022-07-25T05:50:58;24.40;99.90
15969;DHT22;8085;53.472;9.794;2022-07-25T05:53:25;24.40;99.90
15969;DHT22;8085;53.472;9.794;2022-07-25T05:55:52;24.50;99.90
15969;DHT22;8085;53.472;9.794;2022-07-25T05:58:19;24.50;99.90
15969;DHT22;8085;53.472;9.794;2022-07-25T06:00:45;24.70;99.90
15969;DHT22;8085;53.472;9.794;2022-07-25T06:03:14;24.80;99.90
15969;DHT22;8085;53.472;9.794;2022-07-25T06:05:42;24.80;99.90
15969;DHT22;8085;53.472;9.794;2022-07-25T06:08:11;24.90;99.90
15969;DHT22;8085;53.472;9.794;2022-07-25T06:10:38;25.10;99.90
15969;DHT22;8085;53.472;9.794;2022-07-25T06:13:05;25.30;99.90
15969;DHT22;8085;53.472;9.794;2022-07-25T06:15:32;25.40;99.90
15969;DHT22;8085;53.472;9.794;2022-07-25T06:17:59;25.40;99.90
15969;DHT22;8085;53.472;9.794;2022-07-25T06:20:27;25.30;99.90
15969;DHT22;8085;53.472;9.794;2022-07-25T06:22:54;25.40;99.90
15969;DHT22;8085;53.472;9.794;2022-07-25T06:25:21;25.60;99.90
15969;DHT22;8085;53.472;9.794;2022-07-25T06:27:49;25.70;99.90
15969;DHT22;8085;53.472;9.794;2022-07-25T06:30:15;25.90;99.90
15969;DHT22;8085;53.472;9.794;2022-07-25T06:32:42;25.90;99.90
15969;DHT22;8085;53.472;9.794;2022-07-25T06:35:09;26.00;99.90
15969;DHT22;8085;53.472;9.794;2022-07-25T06:37:38;26.00;99.90
15969;DHT22;8085;53.472;9.794;2022-07-25T06:40:06;26.10;99.90
15969;DHT22;8085;53.472;9.794;2022-07-25T06:42:37;26.30;99.90
15969;DHT22;8085;53.472;9.794;2022-07-25T06:45:07;26.50;99.90
15969;DHT22;8085;53.472;9.794;2022-07-25T06:47:34;26.70;99.90
15969;DHT22;8085;53.472;9.794;2022-07-25T06:50:01;26.80;99.90
15969;DHT22;8085;53.472;9.794;2022-07-25T06:52:28;26.90;99.90
15969;DHT22;8085;53.472;9.794;2022-07-25T06:54:56;26.70;99.90
15969;DHT22;8085;53.472;9.794;2022-07-25T06:57:23;26.70;99.90
15969;DHT22;8085;53.472;9.794;2022-07-25T06:59:52;26.60;99.90
15969;DHT22;8085;53.472;9.794;2022-07-25T07:02:19;26.60;99.90
15969;DHT22;8085;53.472;9.794;2022-07-25T07:04:46;26.70;99.90
15969;DHT22;8085;53.472;9.794;2022-07-25T07:07:13;26.80;99.90
15969;DHT22;8085;53.472;9.794;2022-07-25T07:09:41;27.00;99.90
15969;DHT22;8085;53.472;9.794;2022-07-25T07:12:10;27.20;99.90
15969;DHT22;8085;53.472;9.794;2022-07-25T07:14:37;27.30;99.90
15969;DHT22;8085;53.472;9.794;2022-07-25T07:17:04;27.30;99.90
15969;DHT22;8085;53.472;9.794;2022-07-25T07:19:31;27.20;99.90
15969;DHT22;8085;53.472;9.794;2022-07-25T07:21:58;27.20;99.90
15969;DHT22;8085;53.472;9.794;2022-07-25T07:24:25;27.30;99.90
15969;DHT22;8085;53.472;9.794;2022-07-25T07:26:52;27.30;99.90
15969;DHT22;8085;53.472;9.794;2022-07-25T07:29:21;27.30;99.90
15969;DHT22;8085;53.472;9.794;2022-07-25T07:31:48;27.30;99.90
15969;DHT22;8085;53.472;9.794;2022-07-25T07:34:15;27.30;99.90
15969;DHT22;8085;53.472;9.794;2022-07-25T07:36:48;27.40;99.90
15969;DHT22;8085;53.472;9.794;2022-07-25T07:39:15;27.50;99.90
15969;DHT22;8085;53.472;9.794;2022-07-25T07:41:42;27.80;99.90
15969;DHT22;8085;53.472;9.794;2022-07-25T07:44:09;27.80;99.90
15969;DHT22;8085;53.472;9.794;2022-07-25T07:46:37;27.90;99.90
15969;DHT22;8085;53.472;9.794;2022-07-25T07:49:04;27.90;99.90
15969;DHT22;8085;53.472;9.794;2022-07-25T07:51:31;27.90;99.90
15969;DHT22;8085;53.472;9.794;2022-07-25T07:53:58;27.90;99.90
15969;DHT22;8085;53.472;9.794;2022-07-25T07:56:42;27.90;99.90
15969;DHT22;8085;53.472;9.794;2022-07-25T07:59:10;27.90;99.90
15969;DHT22;8085;53.472;9.794;2022-07-25T08:01:38;28.20;99.90
15969;DHT22;8085;53.472;9.794;2022-07-25T08:04:05;28.30;99.90
15969;DHT22;8085;53.472;9.794;2022-07-25T08:06:32;28.40;99.90
15969;DHT22;8085;53.472;9.794;2022-07-25T08:08:59;28.60;99.90
15969;DHT22;8085;53.472;9.794;2022-07-25T08:11:26;28.70;98.80
15969;DHT22;8085;53.472;9.794;2022-07-25T08:13:53;28.70;99.90
15969;DHT22;8085;53.472;9.794;2022-07-25T08:16:20;28.70;97.60
15969;DHT22;8085;53.472;9.794;2022-07-25T08:18:48;28.80;96.70
15969;DHT22;8085;53.472;9.794;2022-07-25T08:21:15;28.80;99.90
15969;DHT22;8085;53.472;9.794;2022-07-25T08:23:42;29.00;87.50
15969;DHT22;8085;53.472;9.794;2022-07-25T08:26:11;28.90;89.70
15969;DHT22;8085;53.472;9.794;2022-07-25T08:28:38;28.90;74.20
15969;DHT22;8085;53.472;9.794;2022-07-25T08:31:08;29.00;74.60
15969;DHT22;8085;53.472;9.794;2022-07-25T08:33:35;29.10;84.20
15969;DHT22;8085;53.472;9.794;2022-07-25T08:36:04;29.30;63.90
15969;DHT22;8085;53.472;9.794;2022-07-25T08:38:36;29.30;56.90
15969;DHT22;8085;53.472;9.794;2022-07-25T08:41:03;29.50;55.80
15969;DHT22;8085;53.472;9.794;2022-07-25T08:43:30;29.70;64.30
15969;DHT22;8085;53.472;9.794;2022-07-25T08:46:01;30.00;39.80
15969;DHT22;8085;53.472;9.794;2022-07-25T08:48:28;29.80;32.30
15969;DHT22;8085;53.472;9.794;2022-07-25T08:50:55;29.80;29.70
15969;DHT22;8085;53.472;9.794;2022-07-25T08:53:24;29.90;27.10
15969;DHT22;8085;53.472;9.794;2022-07-25T08:55:52;30.10;20.70
15969;DHT22;8085;53.472;9.794;2022-07-25T08:58:19;30.50;13.70
15969;DHT22;8085;53.472;9.794;2022-07-25T09:00:46;30.40;9.50
15969;DHT22;8085;53.472;9.794;2022-07-25T09:03:13;29.90;13.60
15969;DHT22;8085;53.472;9.794;2022-07-25T09:05:40;29.80;15.30
15969;DHT22;8085;53.472;9.794;2022-07-25T09:08:12;29.40;20.60
15969;DHT22;8085;53.472;9.794;2022-07-25T09:10:46;29.60;21.00
15969;DHT22;8085;53.472;9.794;2022-07-25T09:13:14;29.70;15.60
15969;DHT22;8085;53.472;9.794;2022-07-25T09:15:45;29.90;12.90
15969;DHT22;8085;53.472;9.794;2022-07-25T09:18:14;30.10;8.90
15969;DHT22;8085;53.472;9.794;2022-07-25T09:20:43;30.20;6.40
15969;DHT22;8085;53.472;9.794;2022-07-25T09:23:12;30.30;2.10
15969;DHT22;8085;53.472;9.794;2022-07-25T09:25:40;30.60;9.30
15969;DHT22;8085;53.472;9.794;2022-07-25T09:28:17;30.90;1.00
15969;DHT22;8085;53.472;9.794;2022-07-25T09:30:56;30.80;1.00
15969;DHT22;8085;53.472;9.794;2022-07-25T09:33:25;31.10;1.00
15969;DHT22;8085;53.472;9.794;2022-07-25T09:35:53;31.30;1.00
15969;DHT22;8085;53.472;9.794;2022-07-25T09:38:21;31.10;1.00
15969;DHT22;8085;53.472;9.794;2022-07-25T09:40:56;31.30;1.00
15969;DHT22;8085;53.472;9.794;2022-07-25T09:43:35;31.10;1.00
15969;DHT22;8085;53.472;9.794;2022-07-25T09:46:02;31.00;1.00
15969;DHT22;8085;53.472;9.794;2022-07-25T09:48:29;30.80;1.00
15969;DHT22;8085;53.472;9.794;2022-07-25T09:50:57;30.80;1.00
15969;DHT22;8085;53.472;9.794;2022-07-25T09:53:25;31.00;1.00
15969;DHT22;8085;53.472;9.794;2022-07-25T09:55:52;31.10;1.00
15969;DHT22;8085;53.472;9.794;2022-07-25T09:58:21;31.00;1.00
15969;DHT22;8085;53.472;9.794;2022-07-25T10:00:51;31.00;1.00
15969;DHT22;8085;53.472;9.794;2022-07-25T10:03:25;31.10;1.00
15969;DHT22;8085;53.472;9.794;2022-07-25T10:06:06;31.10;1.00
15969;DHT22;8085;53.472;9.794;2022-07-25T10:08:35;31.20;1.00
15969;DHT22;8085;53.472;9.794;2022-07-25T10:11:03;31.30;1.00
15969;DHT22;8085;53.472;9.794;2022-07-25T10:13:32;31.10;1.00
15969;DHT22;8085;53.472;9.794;2022-07-25T10:16:01;31.10;1.00
15969;DHT22;8085;53.472;9.794;2022-07-25T10:18:47;31.20;1.00
15969;DHT22;8085;53.472;9.794;2022-07-25T10:21:15;31.30;1.00
15969;DHT22;8085;53.472;9.794;2022-07-25T10:23:42;31.30;1.00
15969;DHT22;8085;53.472;9.794;2022-07-25T10:26:12;31.30;1.00
15969;DHT22;8085;53.472;9.794;2022-07-25T10:28:42;31.00;1.00
15969;DHT22;8085;53.472;9.794;2022-07-25T10:31:19;31.00;1.00
15969;DHT22;8085;53.472;9.794;2022-07-25T10:33:52;30.80;1.00
15969;DHT22;8085;53.472;9.794;2022-07-25T10:36:20;30.80;1.00
15969;DHT22;8085;53.472;9.794;2022-07-25T10:38:50;31.00;1.00
15969;DHT22;8085;53.472;9.794;2022-07-25T10:41:17;31.40;1.00
15969;DHT22;8085;53.472;9.794;2022-07-25T10:43:49;31.40;1.00
15969;DHT22;8085;53.472;9.794;2022-07-25T10:46:19;31.50;1.00
15969;DHT22;8085;53.472;9.794;2022-07-25T10:48:57;31.60;1.00
15969;DHT22;8085;53.472;9.794;2022-07-25T10:51:25;31.70;1.00
15969;DHT22;8085;53.472;9.794;2022-07-25T10:53:53;31.50;1.00
15969;DHT22;8085;53.472;9.794;2022-07-25T10:56:25;31.50;1.00
15969;DHT22;8085;53.472;9.794;2022-07-25T10:58:53;31.40;1.00
15969;DHT22;8085;53.472;9.794;2022-07-25T11:01:24;31.40;1.00
15969;DHT22;8085;53.472;9.794;2022-07-25T11:03:53;31.10;1.00
15969;DHT22;8085;53.472;9.794;2022-07-25T11:06:32;31.10;1.00
15969;DHT22;8085;53.472;9.794;2022-07-25T11:08:59;31.20;1.00
15969;DHT22;8085;53.472;9.794;2022-07-25T11:11:36;31.40;1.00
15969;DHT22;8085;53.472;9.794;2022-07-25T11:14:12;31.40;1.00
15969;DHT22;8085;53.472;9.794;2022-07-25T11:16:43;31.50;1.00
15969;DHT22;8085;53.472;9.794;2022-07-25T11:19:17;31.80;1.00
15969;DHT22;8085;53.472;9.794;2022-07-25T11:21:46;32.00;1.00
15969;DHT22;8085;53.472;9.794;2022-07-25T11:24:13;31.90;1.00
15969;DHT22;8085;53.472;9.794;2022-07-25T13:07:31;32.50;1.00
15969;DHT22;8085;53.472;9.794;2022-07-25T13:09:58;32.60;1.00
15969;DHT22;8085;53.472;9.794;2022-07-25T13:12:25;32.50;1.00
15969;DHT22;8085;53.472;9.794;2022-07-25T13:14:53;32.40;1.00
15969;DHT22;8085;53.472;9.794;2022-07-25T13:17:19;32.40;1.00
15969;DHT22;8085;53.472;9.794;2022-07-25T13:19:46;32.30;1.00
15969;DHT22;8085;53.472;9.794;2022-07-25T13:22:14;32.30;1.00
15969;DHT22;8085;53.472;9.794;2022-07-25T13:24:42;32.30;1.00
15969;DHT22;8085;53.472;9.794;2022-07-25T13:27:09;32.30;1.00
15969;DHT22;8085;53.472;9.794;2022-07-25T13:29:36;32.20;1.00
15969;DHT22;8085;53.472;9.794;2022-07-25T13:32:04;32.50;1.00
15969;DHT22;8085;53.472;9.794;2022-07-25T13:34:33;32.70;1.00
15969;DHT22;8085;53.472;9.794;2022-07-25T13:37:00;32.60;1.00
15969;DHT22;8085;53.472;9.794;2022-07-25T13:39:27;32.50;1.00
15969;DHT22;8085;53.472;9.794;2022-07-25T13:41:59;32.40;1.00
15969;DHT22;8085;53.472;9.794;2022-07-25T13:44:25;32.50;1.00
15969;DHT22;8085;53.472;9.794;2022-07-25T13:46:53;32.60;1.00
15969;DHT22;8085;53.472;9.794;2022-07-25T13:49:25;32.70;1.00
15969;DHT22;8085;53.472;9.794;2022-07-25T13:51:52;32.70;1.00
15969;DHT22;8085;53.472;9.794;2022-07-25T13:54:23;32.50;1.00
15969;DHT22;8085;53.472;9.794;2022-07-25T13:56:51;32.20;1.00
15969;DHT22;8085;53.472;9.794;2022-07-25T13:59:19;32.00;1.00
15969;DHT22;8085;53.472;9.794;2022-07-25T14:01:46;32.10;1.00
15969;DHT22;8085;53.472;9.794;2022-07-25T14:04:13;32.00;1.00
15969;DHT22;8085;53.472;9.794;2022-07-25T14:06:40;32.10;1.00
15969;DHT22;8085;53.472;9.794;2022-07-25T14:09:08;32.20;1.00
15969;DHT22;8085;53.472;9.794;2022-07-25T14:11:35;32.10;1.00
15969;DHT22;8085;53.472;9.794;2022-07-25T14:14:02;32.00;1.00
15969;DHT22;8085;53.472;9.794;2022-07-25T14:16:30;32.00;1.00
15969;DHT22;8085;53.472;9.794;2022-07-25T14:18:59;31.90;1.00
15969;DHT22;8085;53.472;9.794;2022-07-25T14:21:26;31.30;1.00
15969;DHT22;8085;53.472;9.794;2022-07-25T14:23:53;30.00;99.90
15969;DHT22;8085;53.472;9.794;2022-07-25T14:26:20;29.20;99.90
15969;DHT22;8085;53.472;9.794;2022-07-25T14:28:47;28.90;1.00
15969;DHT22;8085;53.472;9.794;2022-07-25T14:31:14;28.50;1.00
15969;DHT22;8085;53.472;9.794;2022-07-25T14:33:46;28.40;1.00
15969;DHT22;8085;53.472;9.794;2022-07-25T14:36:13;28.20;1.00
15969;DHT22;8085;53.472;9.794;2022-07-25T14:38:40;28.10;1.00
15969;DHT22;8085;53.472;9.794;2022-07-25T14:41:07;28.00;1.00
15969;DHT22;8085;53.472;9.794;2022-07-25T14:43:34;27.80;1.00
15969;DHT22;8085;53.472;9.794;2022-07-25T14:46:01;27.70;1.00
15969;DHT22;8085;53.472;9.794;2022-07-25T14:48:28;27.30;1.00
15969;DHT22;8085;53.472;9.794;2022-07-25T14:50:56;27.30;28.90
15969;DHT22;8085;53.472;9.794;2022-07-25T14:53:25;27.20;62.30
15969;DHT22;8085;53.472;9.794;2022-07-25T14:55:52;27.10;99.90
15969;DHT22;8085;53.472;9.794;2022-07-25T14:58:30;27.00;99.90
15969;DHT22;8085;53.472;9.794;2022-07-25T15:01:12;26.70;1.00
15969;DHT22;8085;53.472;9.794;2022-07-25T15:03:43;26.80;1.00
15969;DHT22;8085;53.472;9.794;2022-07-25T15:09:49;26.80;1.00
15969;DHT22;8085;53.472;9.794;2022-07-25T15:12:20;26.70;99.90
15969;DHT22;8085;53.472;9.794;2022-07-25T15:14:57;26.50;99.90
15969;DHT22;8085;53.472;9.794;2022-07-25T15:17:32;26.20;1.00
15969;DHT22;8085;53.472;9.794;2022-07-25T15:20:10;26.00;1.00
15969;DHT22;8085;53.472;9.794;2022-07-25T15:22:37;25.80;1.00
15969;DHT22;8085;53.472;9.794;2022-07-25T15:25:08;25.50;99.90
15969;DHT22;8085;53.472;9.794;2022-07-25T15:27:36;25.60;1.00
15969;DHT22;8085;53.472;9.794;2022-07-25T15:30:04;25.30;99.90
15969;DHT22;8085;53.472;9.794;2022-07-25T15:32:31;24.80;1.00
15969;DHT22;8085;53.472;9.794;2022-07-25T15:34:58;24.30;1.00
15969;DHT22;8085;53.472;9.794;2022-07-25T15:37:27;23.90;1.00
15969;DHT22;8085;53.472;9.794;2022-07-25T15:39:54;23.80;1.00
15969;DHT22;8085;53.472;9.794;2022-07-25T15:42:22;23.40;1.00
15969;DHT22;8085;53.472;9.794;2022-07-25T15:44:49;23.40;10.00
15969;DHT22;8085;53.472;9.794;2022-07-25T15:47:18;23.40;1.00
15969;DHT22;8085;53.472;9.794;2022-07-25T15:49:45;23.30;7.10
15969;DHT22;8085;53.472;9.794;2022-07-25T15:52:12;23.50;25.00
15969;DHT22;8085;53.472;9.794;2022-07-25T15:54:39;23.50;1.00
15969;DHT22;8085;53.472;9.794;2022-07-25T15:57:06;23.30;1.00
15969;DHT22;8085;53.472;9.794;2022-07-25T15:59:34;23.50;1.00
15969;DHT22;8085;53.472;9.794;2022-07-25T16:02:01;23.60;1.00
15969;DHT22;8085;53.472;9.794;2022-07-25T16:04:38;23.60;1.00
15969;DHT22;8085;53.472;9.794;2022-07-25T16:07:05;23.30;1.00
15969;DHT22;8085;53.472;9.794;2022-07-25T16:09:35;23.50;1.00
15969;DHT22;8085;53.472;9.794;2022-07-25T16:12:02;23.50;1.00
15969;DHT22;8085;53.472;9.794;2022-07-25T16:14:29;23.40;1.00
15969;DHT22;8085;53.472;9.794;2022-07-25T16:17:00;23.30;14.70
15969;DHT22;8085;53.472;9.794;2022-07-25T16:19:30;23.50;12.40
15969;DHT22;8085;53.472;9.794;2022-07-25T16:21:58;23.60;16.50
15969;DHT22;8085;53.472;9.794;2022-07-25T16:24:25;23.70;4.40
15969;DHT22;8085;53.472;9.794;2022-07-25T16:26:52;23.70;3.00
15969;DHT22;8085;53.472;9.794;2022-07-25T16:29:19;23.80;16.90
15969;DHT22;8085;53.472;9.794;2022-07-25T16:31:46;23.80;18.60
15969;DHT22;8085;53.472;9.794;2022-07-25T16:34:15;23.80;26.20
15969;DHT22;8085;53.472;9.794;2022-07-25T16:36:42;23.70;1.50
15969;DHT22;8085;53.472;9.794;2022-07-25T16:39:09;23.80;26.10
15969;DHT22;8085;53.472;9.794;2022-07-25T16:41:35;23.80;1.00
15969;DHT22;8085;53.472;9.794;2022-07-25T16:44:02;24.00;6.20
15969;DHT22;8085;53.472;9.794;2022-07-25T16:46:29;24.00;11.90
15969;DHT22;8085;53.472;9.794;2022-07-25T16:48:56;24.00;1.00
15969;DHT22;8085;53.472;9.794;2022-07-25T16:51:24;23.80;1.00
15969;DHT22;8085;53.472;9.794;2022-07-25T16:53:51;23.80;1.00
15969;DHT22;8085;53.472;9.794;2022-07-25T16:56:18;23.80;12.30
15969;DHT22;8085;53.472;9.794;2022-07-25T16:58:45;23.90;1.00
15969;DHT22;8085;53.472;9.794;2022-07-25T17:01:15;24.00;1.00
15969;DHT22;8085;53.472;9.794;2022-07-25T17:03:43;23.80;1.00
15969;DHT22;8085;53.472;9.794;2022-07-25T17:06:10;24.00;1.00
15969;DHT22;8085;53.472;9.794;2022-07-25T17:08:38;24.10;1.00
15969;DHT22;8085;53.472;9.794;2022-07-25T17:11:05;24.10;1.00
15969;DHT22;8085;53.472;9.794;2022-07-25T17:13:32;24.00;1.00
15969;DHT22;8085;53.472;9.794;2022-07-25T17:15:59;23.80;1.00
15969;DHT22;8085;53.472;9.794;2022-07-25T17:18:26;23.60;1.00
15969;DHT22;8085;53.472;9.794;2022-07-25T17:20:53;23.60;29.70
15969;DHT22;8085;53.472;9.794;2022-07-25T17:23:20;23.80;4.00
15969;DHT22;8085;53.472;9.794;2022-07-25T17:25:49;23.80;1.00
15969;DHT22;8085;53.472;9.794;2022-07-25T17:29:01;23.70;1.00
15969;DHT22;8085;53.472;9.794;2022-07-25T17:31:48;23.70;1.00
15969;DHT22;8085;53.472;9.794;2022-07-25T17:34:15;23.50;1.00
15969;DHT22;8085;53.472;9.794;2022-07-25T17:36:53;23.50;15.30
15969;DHT22;8085;53.472;9.794;2022-07-25T17:39:22;23.50;5.00
15969;DHT22;8085;53.472;9.794;2022-07-25T17:41:53;23.60;32.60
15969;DHT22;8085;53.472;9.794;2022-07-25T17:44:20;23.80;22.60
15969;DHT22;8085;53.472;9.794;2022-07-25T17:46:47;23.70;10.80
15969;DHT22;8085;53.472;9.794;2022-07-25T17:49:39;23.60;13.30
15969;DHT22;8085;53.472;9.794;2022-07-25T17:52:35;23.30;1.00
15969;DHT22;8085;53.472;9.794;2022-07-25T17:55:02;23.10;1.00
15969;DHT22;8085;53.472;9.794;2022-07-25T17:57:31;23.00;10.10
15969;DHT22;8085;53.472;9.794;2022-07-25T17:59:58;22.90;17.90
15969;DHT22;8085;53.472;9.794;2022-07-25T18:02:25;23.00;1.00
15969;DHT22;8085;53.472;9.794;2022-07-25T18:04:52;23.00;1.00
15969;DHT22;8085;53.472;9.794;2022-07-25T18:50:30;22.70;8.10
15969;DHT22;8085;53.472;9.794;2022-07-25T18:53:34;22.60;1.00
15969;DHT22;8085;53.472;9.794;2022-07-25T19:19:24;22.20;8.60
15969;DHT22;8085;53.472;9.794;2022-07-25T19:23:23;22.30;7.00
15969;DHT22;8085;53.472;9.794;2022-07-25T19:51:14;22.20;1.00
15969;DHT22;8085;53.472;9.794;2022-07-25T20:02:46;21.70;1.00
15969;DHT22;8085;53.472;9.794;2022-07-25T20:05:52;21.90;1.00
15969;DHT22;8085;53.472;9.794;2022-07-25T20:09:01;21.80;1.00
15969;DHT22;8085;53.472;9.794;2022-07-25T20:12:39;21.90;1.00
15969;DHT22;8085;53.472;9.794;2022-07-25T20:18:28;21.90;1.00
15969;DHT22;8085;53.472;9.794;2022-07-25T20:19:22;21.90;1.00
15969;DHT22;8085;53.472;9.794;2022-07-25T20:22:32;21.60;1.00
15969;DHT22;8085;53.472;9.794;2022-07-25T20:25:51;21.70;15.90
15969;DHT22;8085;53.472;9.794;2022-07-25T20:28:58;21.80;13.90
15969;DHT22;8085;53.472;9.794;2022-07-25T20:32:04;21.70;9.50
15969;DHT22;8085;53.472;9.794;2022-07-25T20:34:31;21.70;13.60
15969;DHT22;8085;53.472;9.794;2022-07-25T20:36:58;21.70;4.70
15969;DHT22;8085;53.472;9.794;2022-07-25T20:39:25;21.70;5.10
15969;DHT22;8085;53.472;9.794;2022-07-25T20:48:15;21.70;8.20
15969;DHT22;8085;53.472;9.794;2022-07-25T20:51:02;21.60;1.00
15969;DHT22;8085;53.472;9.794;2022-07-25T20:53:37;21.50;3.50
15969;DHT22;8085;53.472;9.794;2022-07-25T20:56:23;21.50;1.00
15969;DHT22;8085;53.472;9.794;2022-07-25T20:58:55;21.40;1.00
15969;DHT22;8085;53.472;9.794;2022-07-25T21:01:39;21.30;1.00
15969;DHT22;8085;53.472;9.794;2022-07-25T21:04:10;21.20;1.00
15969;DHT22;8085;53.472;9.794;2022-07-25T21:14:26;21.10;1.00
15969;DHT22;8085;53.472;9.794;2022-07-25T21:17:31;21.10;1.00
15969;DHT22;8085;53.472;9.794;2022-07-25T21:30:27;20.70;6.80
15969;DHT22;8085;53.472;9.794;2022-07-25T21:40:46;20.80;17.70
15969;DHT22;8085;53.472;9.794;2022-07-25T21:47:18;20.80;1.00
15969;DHT22;8085;53.472;9.794;2022-07-25T21:53:49;20.40;19.50
15969;DHT22;8085;53.472;9.794;2022-07-25T21:56:55;20.30;15.30
15969;DHT22;8085;53.472;9.794;2022-07-25T21:59:42;20.00;16.50
15969;DHT22;8085;53.472;9.794;2022-07-25T22:02:10;20.00;23.50
15969;DHT22;8085;53.472;9.794;2022-07-25T22:04:37;20.10;30.30
15969;DHT22;8085;53.472;9.794;2022-07-25T22:07:09;20.10;12.20
15969;DHT22;8085;53.472;9.794;2022-07-25T22:12:41;20.00;10.30
15969;DHT22;8085;53.472;9.794;2022-07-25T22:15:24;20.00;4.60
15969;DHT22;8085;53.472;9.794;2022-07-25T22:17:59;20.20;1.00
15969;DHT22;8085;53.472;9.794;2022-07-25T22:20:46;20.00;1.00
15969;DHT22;8085;53.472;9.794;2022-07-25T22:23:13;20.00;1.00
15969;DHT22;8085;53.472;9.794;2022-07-25T22:25:43;19.70;1.00
15969;DHT22;8085;53.472;9.794;2022-07-25T22:31:04;19.80;1.00
15969;DHT22;8085;53.472;9.794;2022-07-25T22:33:40;19.70;1.00
15969;DHT22;8085;53.472;9.794;2022-07-25T22:36:22;19.70;1.00
15969;DHT22;8085;53.472;9.794;2022-07-25T22:38:54;19.60;1.00
15969;DHT22;8085;53.472;9.794;2022-07-25T22:41:24;19.70;1.00
15969;DHT22;8085;53.472;9.794;2022-07-25T22:43:56;19.80;1.00
15969;DHT22;8085;53.472;9.794;2022-07-25T22:46:32;19.80;1.00
15969;DHT22;8085;53.472;9.794;2022-07-25T22:49:00;20.00;1.00
15969;DHT22;8085;53.472;9.794;2022-07-25T22:51:32;20.10;1.00
15969;DHT22;8085;53.472;9.794;2022-07-25T22:54:08;20.20;1.00
15969;DHT22;8085;53.472;9.794;2022-07-25T22:56:48;20.00;1.00
15969;DHT22;8085;53.472;9.794;2022-07-25T22:59:52;20.00;1.00
15969;DHT22;8085;53.472;9.794;2022-07-25T23:02:22;20.00;1.00
15969;DHT22;8085;53.472;9.794;2022-07-25T23:05:04;20.00;1.00
15969;DHT22;8085;53.472;9.794;2022-07-25T23:07:32;19.90;1.00
15969;DHT22;8085;53.472;9.794;2022-07-25T23:10:00;20.00;1.00
15969;DHT22;8085;53.472;9.794;2022-07-25T23:12:32;20.00;1.00
15969;DHT22;8085;53.472;9.794;2022-07-25T23:15:10;19.90;1.00
15969;DHT22;8085;53.472;9.794;2022-07-25T23:17:37;19.80;1.00
15969;DHT22;8085;53.472;9.794;2022-07-25T23:26:01;19.80;1.00
15969;DHT22;8085;53.472;9.794;2022-07-25T23:28:28;19.70;1.00
15969;DHT22;8085;53.472;9.794;2022-07-25T23:30:56;19.70;1.00
15969;DHT22;8085;53.472;9.794;2022-07-25T23:33:23;19.70;1.00
15969;DHT22;8085;53.472;9.794;2022-07-25T23:35:51;19.60;1.00
15969;DHT22;8085;53.472;9.794;2022-07-25T23:38:18;19.60;1.00
15969;DHT22;8085;53.472;9.794;2022-07-25T23:40:45;19.60;1.00
15969;DHT22;8085;53.472;9.794;2022-07-25T23:43:12;19.50;1.00
15969;DHT22;8085;53.472;9.794;2022-07-25T23:45:39;19.50;1.00
15969;DHT22;8085;53.472;9.794;2022-07-25T23:48:08;19.50;1.00
15969;DHT22;8085;53.472;9.794;2022-07-25T23:50:35;19.20;1.00
15969;DHT22;8085;53.472;9.794;2022-07-25T23:53:02;19.20;1.00
15969;DHT22;8085;53.472;9.794;2022-07-25T23:55:30;19.10;1.00
15969;DHT22;8085;53.472;9.794;2022-07-25T23:58:00;19.00;6.60
